Time;durP1;ratioP1;P1;durP2;ratioP2;P2;SDS_P1;SDS_P2;PMS_P1;PMS_P2;Temp;Humidity;BMP_temperature;BMP_pressure;BME280_temperature;BME280_humidity;BME280_pressure;Samples;Min_cycle;Max_cycle;Signal;HPM_P1;HPM_P2
2023/09/19 00:00:08;;;;;;;2.30;2.10;;;;;;;14.50;67.57;93915.25;528240;28;965;-41
2023/09/19 00:00:25;;;;;;;2.30;2.10;;;;;;;14.43;67.78;93908.41;528257;28;984;-42
2023/09/19 00:00:42;;;;;;;2.05;1.88;;;;;;;14.49;67.63;93916.53;528170;28;896;-42
2023/09/19 00:00:57;;;;;;;2.35;1.90;;;;;;;14.50;67.84;93918.00;528303;28;864;-41
2023/09/19 00:01:14;;;;;;;2.17;1.95;;;;;;;14.50;67.89;93908.94;528370;28;948;-41
2023/09/19 00:01:32;;;;;;;2.50;2.30;;;;;;;14.49;67.84;93913.75;528396;28;891;-42
2023/09/19 00:01:47;;;;;;;2.28;1.90;;;;;;;14.50;67.96;93911.72;528384;28;985;-42
2023/09/19 00:02:04;;;;;;;2.57;1.90;;;;;;;14.33;68.03;93887.34;528446;27;896;-41
2023/09/19 00:02:20;;;;;;;2.33;2.13;;;;;;;14.50;68.01;93911.72;528432;28;892;-41
2023/09/19 00:02:36;;;;;;;3.60;2.10;;;;;;;14.50;68.11;93915.25;528443;28;780;-42
2023/09/19 00:03:01;;;;;;;3.67;1.95;;;;;;;14.44;67.94;93904.31;528430;28;868;-42
2023/09/19 00:03:16;;;;;;;3.40;2.30;;;;;;;14.50;68.06;93903.38;528292;28;868;-41
2023/09/19 00:03:32;;;;;;;3.95;2.22;;;;;;;14.49;68.01;93913.75;528439;28;812;-42
2023/09/19 00:03:47;;;;;;;3.70;2.07;;;;;;;14.49;67.95;93908.19;528428;28;781;-42
2023/09/19 00:04:03;;;;;;;3.83;2.00;;;;;;;14.48;67.87;93912.28;528408;28;915;-42
2023/09/19 00:04:23;;;;;;;4.27;2.10;;;;;;;14.49;67.92;93904.69;528355;28;973;-42
2023/09/19 00:04:39;;;;;;;2.40;2.20;;;;;;;14.48;67.69;93917.84;528414;28;816;-41
2023/09/19 00:04:55;;;;;;;2.35;2.15;;;;;;;14.47;67.46;93910.06;528423;27;877;-41
2023/09/19 00:05:12;;;;;;;2.07;1.87;;;;;;;14.45;67.44;93907.84;528467;28;844;-41
2023/09/19 00:05:34;;;;;;;2.22;1.88;;;;;;;14.46;67.17;93914.16;528426;28;813;-42
2023/09/19 00:05:50;;;;;;;2.00;1.90;;;;;;;14.47;67.08;93910.06;528361;28;891;-41
2023/09/19 00:06:07;;;;;;;2.08;1.88;;;;;;;14.45;66.93;93905.06;528455;28;1059;-41
2023/09/19 00:06:25;;;;;;;2.63;2.00;;;;;;;14.45;67.00;93907.84;528450;27;1163;-42
2023/09/19 00:06:42;;;;;;;2.60;2.13;;;;;;;14.45;66.87;93910.63;528382;28;896;-42
2023/09/19 00:07:02;;;;;;;1.80;1.70;;;;;;;14.44;66.88;93909.16;528410;28;948;-42
2023/09/19 00:07:18;;;;;;;2.15;1.83;;;;;;;14.42;67.04;93909.69;528386;28;788;-42
2023/09/19 00:07:33;;;;;;;2.20;1.85;;;;;;;14.43;67.07;93902.13;528481;28;801;-42
2023/09/19 00:07:50;;;;;;;2.37;2.17;;;;;;;14.42;67.08;93904.16;528372;28;1040;-41
2023/09/19 00:08:06;;;;;;;2.42;2.20;;;;;;;14.34;67.23;93894.38;528368;28;899;-41
2023/09/19 00:08:24;;;;;;;2.58;2.15;;;;;;;14.44;67.28;93892.50;528338;28;892;-41
2023/09/19 00:08:40;;;;;;;2.17;1.98;;;;;;;14.45;67.47;93905.06;528378;28;954;-42
2023/09/19 00:08:55;;;;;;;2.05;1.85;;;;;;;14.45;67.38;93902.28;528422;28;890;-42
2023/09/19 00:09:10;;;;;;;1.73;1.63;;;;;;;14.47;67.38;93904.53;528407;28;860;-42
2023/09/19 00:09:27;;;;;;;1.90;1.73;;;;;;;14.47;67.47;93899.69;528412;28;1010;-42
2023/09/19 00:09:44;;;;;;;2.22;1.80;;;;;;;14.48;67.46;93903.19;528464;28;875;-42
2023/09/19 00:10:00;;;;;;;1.93;1.73;;;;;;;14.48;67.47;93906.72;528442;28;864;-41
2023/09/19 00:10:16;;;;;;;1.50;1.40;;;;;;;14.50;67.17;93904.13;528412;28;1038;-41
2023/09/19 00:10:34;;;;;;;1.90;1.75;;;;;;;14.50;66.75;93908.94;528449;28;950;-42
2023/09/19 00:10:50;;;;;;;2.00;1.90;;;;;;;14.50;66.45;93904.13;528381;28;940;-41
2023/09/19 00:11:06;;;;;;;1.90;1.80;;;;;;;14.50;66.38;93904.13;528469;28;895;-42
2023/09/19 00:11:21;;;;;;;2.10;1.90;;;;;;;14.50;66.55;93906.16;528345;28;860;-41
2023/09/19 00:11:41;;;;;;;2.00;1.80;;;;;;;14.52;66.20;93911.88;528400;28;1521;-42
2023/09/19 00:11:56;;;;;;;2.17;1.90;;;;;;;14.53;66.35;93905.03;528426;28;904;-42
2023/09/19 00:12:13;;;;;;;2.77;1.93;;;;;;;14.53;66.50;93913.38;528360;28;982;-42
2023/09/19 00:12:28;;;;;;;2.47;1.70;;;;;;;14.53;66.55;93905.75;526915;28;1626;-42
2023/09/19 00:12:43;;;;;;;2.30;1.67;;;;;;;14.52;66.54;93912.63;526348;28;860;-42
2023/09/19 00:12:59;;;;;;;1.90;1.70;;;;;;;14.53;66.53;93910.59;526261;28;1096;-41
2023/09/19 00:13:15;;;;;;;1.95;1.85;;;;;;;14.53;66.61;93905.75;526298;28;1647;-42
2023/09/19 00:13:30;;;;;;;2.10;1.93;;;;;;;14.53;66.66;93902.97;526261;28;832;-41
2023/09/19 00:13:49;;;;;;;2.20;2.05;;;;;;;14.53;66.79;93910.59;526250;28;1592;-42
2023/09/19 00:14:07;;;;;;;2.10;2.00;;;;;;;14.52;66.83;93901.53;526349;28;856;-42
2023/09/19 00:14:25;;;;;;;2.30;2.20;;;;;;;14.52;67.04;93898.75;526227;28;931;-41
2023/09/19 00:14:40;;;;;;;2.53;2.33;;;;;;;14.52;67.01;93903.56;526247;28;979;-42
2023/09/19 00:14:56;;;;;;;2.40;2.20;;;;;;;14.51;67.11;93902.81;526291;28;840;-42
2023/09/19 00:15:12;;;;;;;2.05;1.85;;;;;;;14.51;67.03;93899.31;526278;28;931;-42
2023/09/19 00:15:30;;;;;;;2.10;1.90;;;;;;;14.49;67.02;93897.06;526312;28;935;-42
2023/09/19 00:15:50;;;;;;;3.47;2.10;;;;;;;14.49;67.09;93897.06;526255;28;935;-41
2023/09/19 00:16:10;;;;;;;3.90;2.08;;;;;;;14.46;66.95;93894.69;526337;28;820;-42
2023/09/19 00:16:26;;;;;;;2.20;2.00;;;;;;;14.49;67.06;93894.28;526250;28;1607;-41
2023/09/19 00:16:42;;;;;;;2.33;2.13;;;;;;;14.50;66.99;93893.00;526333;28;801;-42
2023/09/19 00:16:59;;;;;;;2.27;2.07;;;;;;;14.49;67.02;93885.97;526232;28;833;-42
2023/09/19 00:17:16;;;;;;;2.47;2.28;;;;;;;14.47;67.12;93888.56;526277;28;948;-41
2023/09/19 00:17:31;;;;;;;2.50;2.30;;;;;;;14.48;67.11;93897.66;526287;28;949;-42
2023/09/19 00:17:47;;;;;;;2.35;2.08;;;;;;;14.47;67.06;93894.13;526264;28;980;-41
2023/09/19 00:18:06;;;;;;;4.43;2.10;;;;;;;14.48;67.24;93889.31;526341;28;877;-42
2023/09/19 00:18:21;;;;;;;3.17;2.20;;;;;;;14.47;67.07;93894.13;526176;28;841;-42
2023/09/19 00:18:38;;;;;;;2.33;2.03;;;;;;;14.31;67.00;93876.06;526246;28;833;-42
2023/09/19 00:18:53;;;;;;;3.08;2.25;;;;;;;14.47;66.88;93899.69;526278;28;1011;-42
2023/09/19 00:19:08;;;;;;;3.00;2.33;;;;;;;14.46;66.80;93897.47;526264;28;816;-41
2023/09/19 00:19:24;;;;;;;2.50;2.30;;;;;;;14.43;66.89;93893.78;526234;28;873;-41
2023/09/19 00:19:42;;;;;;;2.67;2.47;;;;;;;14.42;67.15;93895.09;526182;28;863;-41
2023/09/19 00:19:58;;;;;;;2.75;2.55;;;;;;;14.40;67.37;93892.88;526264;28;876;-41
2023/09/19 00:20:17;;;;;;;2.78;2.58;;;;;;;14.39;67.62;93893.44;526283;28;1690;-41
2023/09/19 00:20:34;;;;;;;2.75;2.50;;;;;;;14.39;67.94;93893.44;526310;28;897;-42
2023/09/19 00:20:51;;;;;;;4.03;2.88;;;;;;;14.40;68.11;93894.91;526250;28;1158;-42
2023/09/19 00:21:07;;;;;;;3.47;2.60;;;;;;;14.41;68.17;93901.94;526324;28;868;-42
2023/09/19 00:21:22;;;;;;;2.42;2.22;;;;;;;14.41;68.23;93901.94;526312;28;853;-41
2023/09/19 00:21:38;;;;;;;2.40;2.20;;;;;;;14.41;68.17;93896.38;526238;28;836;-42
2023/09/19 00:21:53;;;;;;;2.10;1.90;;;;;;;14.41;68.20;93890.81;526264;28;1969;-41
2023/09/19 00:22:08;;;;;;;2.00;1.80;;;;;;;14.41;68.28;93894.34;526310;28;789;-42
2023/09/19 00:22:26;;;;;;;2.40;2.20;;;;;;;14.42;67.93;93897.88;526325;28;1320;-42
2023/09/19 00:22:44;;;;;;;2.53;2.25;;;;;;;14.42;67.87;93897.88;526207;28;908;-41
2023/09/19 00:23:05;;;;;;;2.80;2.28;;;;;;;14.41;67.89;93891.56;526278;28;805;-42
2023/09/19 00:23:21;;;;;;;3.00;2.17;;;;;;;14.42;67.71;93897.88;526210;28;1094;-42
2023/09/19 00:23:36;;;;;;;3.83;2.30;;;;;;;14.41;67.83;93886.00;526263;28;794;-41
2023/09/19 00:23:51;;;;;;;3.13;2.08;;;;;;;14.41;67.85;93890.81;526252;28;880;-41
2023/09/19 00:24:08;;;;;;;3.17;2.30;;;;;;;14.42;68.04;93887.47;526259;28;892;-42
2023/09/19 00:24:24;;;;;;;3.95;2.33;;;;;;;14.43;67.98;93888.22;526291;28;909;-42
2023/09/19 00:24:40;;;;;;;2.90;2.10;;;;;;;14.42;68.28;93892.31;526289;28;829;-42
2023/09/19 00:24:55;;;;;;;3.38;2.35;;;;;;;14.43;68.02;93888.97;526296;28;879;-42
2023/09/19 00:25:11;;;;;;;4.33;2.23;;;;;;;14.42;67.88;93887.47;526313;28;840;-42
2023/09/19 00:25:27;;;;;;;4.70;1.98;;;;;;;14.41;67.83;93886.00;526238;28;884;-42
2023/09/19 00:25:43;;;;;;;2.30;2.10;;;;;;;14.40;67.58;93895.63;526323;28;832;-42
2023/09/19 00:26:01;;;;;;;2.60;2.40;;;;;;;14.38;67.68;93889.16;526229;28;1156;-41
2023/09/19 00:26:18;;;;;;;2.67;2.42;;;;;;;14.37;67.82;93890.47;526304;28;1198;-41
2023/09/19 00:26:34;;;;;;;3.63;2.58;;;;;;;14.34;67.88;93888.81;528412;28;895;-42
2023/09/19 00:26:49;;;;;;;2.95;2.58;;;;;;;14.35;67.99;93887.53;528304;28;947;-41
2023/09/19 00:27:05;;;;;;;3.20;2.90;;;;;;;14.35;68.12;93890.31;527683;28;1350;-41
2023/09/19 00:27:20;;;;;;;3.03;2.78;;;;;;;14.35;68.16;93890.31;526248;28;845;-41
2023/09/19 00:27:41;;;;;;;3.07;2.37;;;;;;;14.34;68.26;93881.22;526225;28;888;-41
2023/09/19 00:27:56;;;;;;;3.53;2.35;;;;;;;14.35;68.25;93887.53;526150;28;1121;-42
2023/09/19 00:28:12;;;;;;;3.25;2.38;;;;;;;14.34;68.41;93880.47;526270;28;985;-41
2023/09/19 00:28:29;;;;;;;3.10;2.43;;;;;;;14.34;68.27;93874.94;526196;28;919;-42
2023/09/19 00:28:45;;;;;;;3.10;2.15;;;;;;;14.34;68.55;93875.69;526294;28;938;-42
2023/09/19 00:29:03;;;;;;;2.77;2.13;;;;;;;14.36;68.64;93883.44;526280;28;824;-41
2023/09/19 00:29:19;;;;;;;2.78;2.38;;;;;;;14.36;68.76;93877.88;526128;28;940;-42
2023/09/19 00:29:34;;;;;;;2.70;2.45;;;;;;;14.35;68.58;93885.50;526327;28;861;-41
2023/09/19 00:29:50;;;;;;;2.58;2.38;;;;;;;14.36;68.78;93883.44;526303;28;785;-42
2023/09/19 00:30:08;;;;;;;2.93;2.67;;;;;;;14.36;68.63;93880.66;526820;28;1117;-42
2023/09/19 00:30:24;;;;;;;3.03;2.67;;;;;;;14.37;68.45;93882.16;528361;28;880;-42
2023/09/19 00:30:42;;;;;;;3.20;2.43;;;;;;;14.37;68.33;93884.94;528399;28;825;-41
2023/09/19 00:31:01;;;;;;;3.03;2.30;;;;;;;14.37;68.32;93882.16;528283;28;994;-41
2023/09/19 00:31:16;;;;;;;2.42;2.22;;;;;;;14.36;68.45;93880.66;528382;28;915;-41
2023/09/19 00:31:32;;;;;;;2.90;2.30;;;;;;;14.37;68.46;93882.16;528372;28;896;-42
2023/09/19 00:31:47;;;;;;;3.53;2.63;;;;;;;14.35;68.53;93871.59;528375;28;859;-41
2023/09/19 00:32:03;;;;;;;2.90;2.63;;;;;;;14.36;68.64;93880.66;528351;28;888;-42
2023/09/19 00:32:18;;;;;;;2.67;2.47;;;;;;;14.36;68.72;93877.88;528329;28;939;-42
2023/09/19 00:32:34;;;;;;;2.30;2.10;;;;;;;14.36;68.77;93878.63;528431;28;820;-42
2023/09/19 00:32:54;;;;;;;2.33;2.08;;;;;;;14.36;68.76;93880.66;528304;28;903;-42
2023/09/19 00:33:11;;;;;;;2.30;2.10;;;;;;;14.37;68.79;93887.69;528256;28;911;-42
2023/09/19 00:33:29;;;;;;;2.35;1.95;;;;;;;14.36;68.71;93884.19;528399;28;876;-42
2023/09/19 00:33:44;;;;;;;2.50;2.15;;;;;;;14.38;68.77;93883.59;528340;28;932;-42
2023/09/19 00:34:09;;;;;;;2.30;2.10;;;;;;;14.38;68.76;93886.38;528364;28;920;-41
2023/09/19 00:34:25;;;;;;;2.50;2.30;;;;;;;14.38;68.82;93880.84;528375;28;910;-41
2023/09/19 00:34:40;;;;;;;2.60;2.40;;;;;;;14.38;68.83;93880.84;528375;28;840;-42
2023/09/19 00:34:57;;;;;;;2.90;2.60;;;;;;;14.39;68.85;93887.88;528353;28;892;-42
2023/09/19 00:35:16;;;;;;;2.87;2.63;;;;;;;14.39;68.90;93879.53;528422;28;828;-42
2023/09/19 00:35:33;;;;;;;2.58;2.10;;;;;;;14.39;68.85;93883.06;528291;28;907;-42
2023/09/19 00:35:53;;;;;;;2.20;1.83;;;;;;;14.39;68.82;93885.09;528305;28;1171;-41
2023/09/19 00:36:08;;;;;;;2.17;2.05;;;;;;;14.41;68.80;93891.56;528306;28;856;-42
2023/09/19 00:36:23;;;;;;;2.38;2.17;;;;;;;14.40;68.70;93884.53;528395;28;880;-42
2023/09/19 00:36:39;;;;;;;2.33;2.13;;;;;;;14.40;68.62;93887.31;528313;28;820;-42
2023/09/19 00:36:54;;;;;;;2.17;1.98;;;;;;;14.41;68.59;93885.28;528349;28;908;-42
2023/09/19 00:37:11;;;;;;;2.33;1.90;;;;;;;14.42;68.31;93889.53;528318;28;816;-42
2023/09/19 00:37:26;;;;;;;2.85;1.90;;;;;;;14.41;67.82;93888.78;528359;28;895;-42
2023/09/19 00:37:42;;;;;;;3.20;2.00;;;;;;;14.41;67.68;93890.81;528395;28;809;-42
2023/09/19 00:37:57;;;;;;;3.03;2.10;;;;;;;14.42;67.78;93892.31;528391;28;781;-41
2023/09/19 00:38:17;;;;;;;2.70;2.03;;;;;;;14.40;67.65;93889.38;528336;28;893;-42
2023/09/19 00:38:32;;;;;;;2.22;1.88;;;;;;;14.40;67.63;93890.09;528306;28;965;-42
2023/09/19 00:38:47;;;;;;;1.90;1.70;;;;;;;14.40;67.60;93887.31;528345;28;871;-42
2023/09/19 00:39:05;;;;;;;1.90;1.70;;;;;;;14.40;67.66;93884.53;528314;28;946;-42
2023/09/19 00:39:21;;;;;;;2.78;1.77;;;;;;;14.41;67.64;93886.00;528344;28;1115;-41
2023/09/19 00:39:37;;;;;;;3.50;1.70;;;;;;;14.40;67.74;93881.75;528384;28;868;-41
2023/09/19 00:39:52;;;;;;;3.57;1.90;;;;;;;14.41;67.68;93880.47;528061;28;954;-42
2023/09/19 00:40:12;;;;;;;2.87;2.30;;;;;;;14.41;67.91;93888.78;528030;28;872;-42
2023/09/19 00:40:27;;;;;;;2.60;2.40;;;;;;;14.42;67.92;93883.97;528451;27;888;-42
2023/09/19 00:40:46;;;;;;;2.60;2.20;;;;;;;14.41;67.74;93886.00;528391;28;778;-42
2023/09/19 00:41:01;;;;;;;3.13;2.35;;;;;;;14.41;67.42;93885.28;528382;28;892;-42
2023/09/19 00:41:17;;;;;;;2.97;2.33;;;;;;;14.41;67.41;93886.00;528374;28;800;-41
2023/09/19 00:41:35;;;;;;;2.40;2.15;;;;;;;14.39;67.33;93887.88;528406;28;839;-42
2023/09/19 00:41:50;;;;;;;2.42;2.03;;;;;;;14.40;67.20;93883.81;528271;28;1914;-41
2023/09/19 00:42:07;;;;;;;2.55;2.00;;;;;;;14.38;67.25;93889.91;528335;28;825;-41
2023/09/19 00:42:23;;;;;;;4.00;2.28;;;;;;;14.38;67.26;93889.16;528300;28;919;-42
2023/09/19 00:42:40;;;;;;;4.10;2.53;;;;;;;14.36;67.45;93886.97;528307;28;1103;-41
2023/09/19 00:43:01;;;;;;;2.95;2.40;;;;;;;14.37;67.50;93887.69;528384;28;864;-41
2023/09/19 00:43:17;;;;;;;4.15;2.55;;;;;;;14.36;67.38;93886.97;528048;28;975;-42
2023/09/19 00:43:34;;;;;;;3.40;2.17;;;;;;;14.36;67.61;93883.44;528155;28;837;-41
2023/09/19 00:43:50;;;;;;;2.53;2.10;;;;;;;14.36;67.64;93889.00;528040;28;929;-41
2023/09/19 00:44:06;;;;;;;2.78;2.50;;;;;;;14.36;67.70;93892.50;528204;28;943;-42
2023/09/19 00:44:23;;;;;;;2.70;2.50;;;;;;;14.36;67.70;93884.19;528138;28;887;-41
2023/09/19 00:44:40;;;;;;;2.70;2.45;;;;;;;14.38;67.78;93889.16;528198;28;832;-42
2023/09/19 00:44:55;;;;;;;3.08;2.50;;;;;;;14.39;67.65;93885.09;528159;28;1058;-41
2023/09/19 00:45:12;;;;;;;3.60;2.50;;;;;;;14.39;67.69;93893.44;528271;28;872;-41
2023/09/19 00:45:28;;;;;;;4.50;2.53;;;;;;;14.38;67.55;93887.13;528247;28;942;-41
2023/09/19 00:45:47;;;;;;;3.42;2.22;;;;;;;14.39;67.55;93887.88;528241;28;961;-41
2023/09/19 00:46:06;;;;;;;2.63;2.33;;;;;;;14.39;67.58;93888.63;528212;28;900;-41
2023/09/19 00:46:21;;;;;;;2.78;2.38;;;;;;;14.38;67.55;93892.69;528097;28;928;-41
2023/09/19 00:46:36;;;;;;;2.60;2.20;;;;;;;14.39;67.52;93885.84;528218;28;891;-42
2023/09/19 00:46:53;;;;;;;2.60;2.37;;;;;;;14.39;67.67;93885.84;528184;28;816;-41
2023/09/19 00:47:09;;;;;;;2.78;2.20;;;;;;;14.39;67.59;93885.84;526074;28;904;-42
2023/09/19 00:47:25;;;;;;;2.42;1.98;;;;;;;14.39;67.69;93885.84;526024;28;920;-42
2023/09/19 00:47:50;;;;;;;2.33;2.13;;;;;;;14.40;67.49;93894.91;526041;28;1015;-42
2023/09/19 00:48:08;;;;;;;2.45;2.00;;;;;;;14.40;67.51;93894.91;523992;28;918;-41
2023/09/19 00:48:24;;;;;;;2.50;2.30;;;;;;;14.41;67.38;93893.59;523973;28;936;-42
2023/09/19 00:48:43;;;;;;;2.58;2.38;;;;;;;14.41;67.34;93897.13;523950;28;878;-42
2023/09/19 00:48:59;;;;;;;2.45;2.25;;;;;;;14.40;67.30;93894.91;522353;28;926;-41
2023/09/19 00:49:15;;;;;;;2.80;2.20;;;;;;;14.40;67.67;93892.16;523984;28;1106;-42
2023/09/19 00:49:30;;;;;;;2.47;1.90;;;;;;;14.41;67.50;93899.16;521950;28;840;-41
2023/09/19 00:49:49;;;;;;;2.10;1.90;;;;;;;14.38;67.55;93887.13;519841;28;829;-41
2023/09/19 00:50:07;;;;;;;2.25;2.05;;;;;;;14.40;67.50;93892.16;521972;28;825;-42
2023/09/19 00:50:25;;;;;;;2.55;2.28;;;;;;;14.35;67.48;93885.50;519783;28;929;-42
2023/09/19 00:50:42;;;;;;;4.00;2.30;;;;;;;14.37;67.40;93891.22;519865;28;1139;-41
2023/09/19 00:51:02;;;;;;;3.42;2.20;;;;;;;14.37;67.59;93882.16;519779;28;872;-42
2023/09/19 00:51:20;;;;;;;2.72;2.42;;;;;;;14.36;67.44;93889.75;519777;28;851;-42
2023/09/19 00:51:36;;;;;;;2.30;2.10;;;;;;;14.35;67.63;93881.97;520351;28;975;-41
2023/09/19 00:51:51;;;;;;;2.40;1.90;;;;;;;14.35;67.60;93885.50;522360;28;846;-42
2023/09/19 00:52:08;;;;;;;2.33;1.90;;;;;;;14.36;67.55;93883.44;523972;28;849;-41
2023/09/19 00:52:25;;;;;;;1.88;1.73;;;;;;;14.37;68.05;93885.66;524045;28;837;-42
2023/09/19 00:52:42;;;;;;;3.03;2.20;;;;;;;14.38;68.08;93886.38;524017;28;837;-41
2023/09/19 00:52:58;;;;;;;2.75;2.22;;;;;;;14.37;67.96;93894.00;525962;28;900;-42
2023/09/19 00:53:16;;;;;;;2.35;2.10;;;;;;;14.37;67.81;93894.00;526110;28;935;-41
2023/09/19 00:53:33;;;;;;;2.50;2.30;;;;;;;14.36;67.67;93889.75;526022;28;912;-41
2023/09/19 00:53:49;;;;;;;2.40;2.20;;;;;;;14.35;67.83;93893.09;526009;28;829;-41
2023/09/19 00:54:05;;;;;;;2.37;2.17;;;;;;;14.33;67.93;93896.44;523986;28;798;-41
2023/09/19 00:54:21;;;;;;;2.70;2.03;;;;;;;14.32;67.94;93888.66;525656;28;1227;-41
2023/09/19 00:54:36;;;;;;;2.97;2.00;;;;;;;14.20;68.09;93879.25;527362;28;1119;-42
2023/09/19 00:54:52;;;;;;;2.10;1.90;;;;;;;14.27;68.16;93890.31;526050;28;828;-41
2023/09/19 00:55:11;;;;;;;2.03;1.88;;;;;;;14.25;68.23;93884.56;526041;28;913;-41
2023/09/19 00:55:27;;;;;;;2.58;2.15;;;;;;;14.24;68.44;93887.91;526036;28;982;-41
2023/09/19 00:55:44;;;;;;;2.67;2.30;;;;;;;14.24;68.58;93887.91;524044;28;861;-42
2023/09/19 00:55:59;;;;;;;2.30;2.10;;;;;;;14.24;68.49;93890.69;525125;28;951;-41
2023/09/19 00:56:18;;;;;;;2.93;2.33;;;;;;;14.16;68.51;93876.84;526074;28;821;-42
2023/09/19 00:56:33;;;;;;;3.13;2.33;;;;;;;14.22;68.64;93882.19;526105;28;872;-42
2023/09/19 00:56:50;;;;;;;2.40;2.20;;;;;;;14.21;68.71;93878.66;525522;28;842;-41
2023/09/19 00:57:07;;;;;;;3.38;2.40;;;;;;;14.20;68.64;93882.03;526058;28;884;-41
2023/09/19 00:57:23;;;;;;;2.38;1.95;;;;;;;14.20;68.73;93882.75;526091;28;891;-42
2023/09/19 00:57:39;;;;;;;1.98;1.88;;;;;;;14.17;68.84;93877.56;527483;28;928;-42
2023/09/19 00:57:55;;;;;;;2.40;2.20;;;;;;;14.19;68.91;93886.81;528165;28;861;-41
2023/09/19 00:58:11;;;;;;;2.42;2.20;;;;;;;14.20;69.08;93884.78;528197;28;1042;-42
2023/09/19 00:58:32;;;;;;;2.47;2.03;;;;;;;14.19;68.90;93888.84;526021;28;1038;-42
2023/09/19 00:58:48;;;;;;;2.28;2.08;;;;;;;14.14;68.81;93889.81;525684;28;853;-42
2023/09/19 00:59:03;;;;;;;2.43;2.00;;;;;;;14.17;68.99;93894.25;523984;28;774;-41
2023/09/19 00:59:18;;;;;;;2.67;1.83;;;;;;;14.15;69.03;93891.28;523914;28;881;-41
2023/09/19 00:59:35;;;;;;;2.43;1.93;;;;;;;14.13;69.00;93886.31;523938;28;925;-42
2023/09/19 00:59:53;;;;;;;3.00;2.20;;;;;;;14.12;69.33;93886.88;523912;28;929;-42
2023/09/19 01:00:12;;;;;;;2.35;2.15;;;;;;;14.13;69.38;93899.44;521900;28;814;-41
2023/09/19 01:00:28;;;;;;;2.60;2.40;;;;;;;14.08;69.48;93886.50;523909;28;1133;-41
2023/09/19 01:00:44;;;;;;;2.28;2.08;;;;;;;13.96;69.52;93866.00;523961;28;897;-42
2023/09/19 01:01:00;;;;;;;2.17;2.00;;;;;;;14.13;69.69;93891.13;523429;28;849;-41
2023/09/19 01:01:16;;;;;;;2.07;1.87;;;;;;;14.11;69.52;93888.91;521827;28;951;-42
2023/09/19 01:01:32;;;;;;;2.47;1.92;;;;;;;14.10;69.54;93901.28;519886;28;897;-41
2023/09/19 01:01:52;;;;;;;2.88;2.28;;;;;;;14.11;69.45;93893.72;517785;28;904;-42
2023/09/19 01:02:08;;;;;;;2.50;2.30;;;;;;;14.12;69.62;93886.88;519575;28;881;-41
2023/09/19 01:02:24;;;;;;;2.50;2.30;;;;;;;14.10;69.58;93892.97;519827;28;877;-41
2023/09/19 01:02:39;;;;;;;2.50;2.30;;;;;;;14.10;69.61;93898.53;519844;28;810;-41
2023/09/19 01:02:55;;;;;;;2.43;2.23;;;;;;;14.12;69.53;93897.97;521873;28;1548;-42
2023/09/19 01:03:13;;;;;;;2.50;2.20;;;;;;;14.11;69.71;93891.69;523931;28;974;-42
2023/09/19 01:03:28;;;;;;;3.08;2.22;;;;;;;14.12;69.80;93897.97;523904;28;880;-42
2023/09/19 01:03:44;;;;;;;2.83;2.03;;;;;;;14.13;69.82;93896.66;523975;28;920;-42
2023/09/19 01:03:59;;;;;;;1.93;1.80;;;;;;;14.13;69.80;93888.34;523887;28;932;-41
2023/09/19 01:04:17;;;;;;;2.08;1.98;;;;;;;14.14;69.71;93889.81;524736;28;886;-41
2023/09/19 01:04:33;;;;;;;2.40;2.20;;;;;;;14.14;69.56;93889.81;527135;28;925;-42
2023/09/19 01:04:48;;;;;;;2.90;2.20;;;;;;;14.15;69.51;93899.63;529258;28;829;-42
2023/09/19 01:05:05;;;;;;;3.97;2.13;;;;;;;14.15;69.62;93905.16;528224;28;821;-41
2023/09/19 01:05:21;;;;;;;4.43;2.15;;;;;;;14.13;69.45;93896.66;528138;28;864;-41
2023/09/19 01:05:36;;;;;;;2.88;1.95;;;;;;;14.13;69.60;93902.22;528136;28;1609;-41
2023/09/19 01:05:52;;;;;;;2.20;2.00;;;;;;;14.12;69.55;93901.47;528143;28;885;-41
2023/09/19 01:06:10;;;;;;;1.95;1.75;;;;;;;14.10;69.60;93900.56;528122;28;945;-41
2023/09/19 01:06:26;;;;;;;2.03;1.83;;;;;;;14.09;69.59;93896.31;528088;28;972;-41
2023/09/19 01:06:41;;;;;;;2.10;1.90;;;;;;;14.08;69.65;93897.59;528141;28;915;-41
2023/09/19 01:06:57;;;;;;;3.30;2.10;;;;;;;14.07;69.94;93893.38;528249;28;984;-41
2023/09/19 01:07:14;;;;;;;5.28;2.22;;;;;;;14.03;69.63;93896.53;528303;28;909;-42
2023/09/19 01:07:31;;;;;;;2.95;1.95;;;;;;;14.06;69.80;93894.66;528185;28;908;-42
2023/09/19 01:07:49;;;;;;;1.90;1.75;;;;;;;14.05;69.83;93893.19;526287;28;2945;-41
2023/09/19 01:08:06;;;;;;;2.17;1.92;;;;;;;14.04;69.93;93894.47;526082;28;821;-41
2023/09/19 01:08:21;;;;;;;2.25;1.98;;;;;;;14.03;69.82;93890.97;526017;28;833;-41
2023/09/19 01:08:37;;;;;;;2.30;2.10;;;;;;;14.02;69.93;93894.28;526038;28;883;-41
2023/09/19 01:08:55;;;;;;;2.47;2.27;;;;;;;14.01;70.04;93888.00;526072;28;813;-42
2023/09/19 01:09:11;;;;;;;2.33;2.00;;;;;;;14.02;70.10;93894.28;525992;28;892;-42
2023/09/19 01:09:26;;;;;;;2.22;2.03;;;;;;;14.01;70.32;93893.56;526105;28;916;-42
2023/09/19 01:09:42;;;;;;;2.37;2.10;;;;;;;13.89;70.02;93877.88;526083;28;904;-42
2023/09/19 01:09:58;;;;;;;2.85;2.03;;;;;;;14.01;70.17;93893.56;525995;28;986;-41
2023/09/19 01:10:16;;;;;;;2.80;2.17;;;;;;;14.01;70.46;93888.00;524000;28;912;-41
2023/09/19 01:10:33;;;;;;;2.30;2.08;;;;;;;14.02;70.64;93891.53;523928;28;869;-41
2023/09/19 01:11:00;;;;;;;2.10;1.90;;;;;;;14.01;70.69;93893.56;521914;28;810;-42
2023/09/19 01:11:21;;;;;;;1.95;1.85;;;;;;;14.02;70.76;93895.03;519805;28;908;-41
2023/09/19 01:11:40;;;;;;;2.78;2.17;;;;;;;14.03;70.74;93902.09;519051;28;831;-41
2023/09/19 01:12:02;;;;;;;3.03;2.20;;;;;;;14.04;70.71;93902.81;517791;28;843;-42
2023/09/19 01:12:23;;;;;;;2.55;2.20;;;;;;;14.04;70.89;93897.25;517765;28;824;-41
2023/09/19 01:12:53;;;;;;;2.53;2.10;;;;;;;14.05;70.68;93891.16;520539;28;884;-42
2023/09/19 01:13:16;;;;;;;3.55;1.98;;;;;;;14.05;70.75;93899.47;522813;28;852;-42
2023/09/19 01:13:43;;;;;;;2.40;2.20;;;;;;;14.05;70.58;93902.25;521898;28;857;-42
2023/09/19 01:14:21;;;;;;;2.33;2.13;;;;;;;14.04;70.56;93895.22;521808;28;880;-42
2023/09/19 01:15:00;;;;;;;2.25;1.90;;;;;;;14.04;70.62;93902.81;523809;28;1939;-42
2023/09/19 01:15:33;;;;;;;2.45;2.22;;;;;;;13.88;70.68;93879.91;521823;28;918;-42
2023/09/19 01:16:11;;;;;;;2.20;2.10;;;;;;;14.02;70.73;93900.59;522260;28;936;-42
2023/09/19 01:16:36;;;;;;;2.72;2.13;;;;;;;14.04;70.60;93898.00;521787;28;956;-42
2023/09/19 01:17:34;;;;;;;2.78;2.08;;;;;;;14.05;70.68;93899.47;521866;28;888;-42
2023/09/19 01:17:54;;;;;;;2.20;2.00;;;;;;;14.09;70.34;93901.88;519601;28;886;-41
2023/09/19 01:18:24;;;;;;;2.85;2.08;;;;;;;14.09;70.20;93902.63;519566;28;1243;-42
2023/09/19 01:19:02;;;;;;;3.05;2.10;;;;;;;14.02;69.69;93894.28;519640;28;857;-42
2023/09/19 01:19:26;;;;;;;3.08;2.20;;;;;;;14.14;69.54;93898.16;521789;28;1077;-42
2023/09/19 01:20:02;;;;;;;3.88;2.30;;;;;;;14.14;69.46;93904.44;521717;28;876;-41
2023/09/19 01:20:28;;;;;;;3.70;2.40;;;;;;;14.15;69.39;93902.41;523818;28;884;-42
2023/09/19 01:20:47;;;;;;;2.70;2.47;;;;;;;14.14;69.60;93901.66;523982;28;912;-42
2023/09/19 01:21:13;;;;;;;2.47;2.28;;;;;;;14.14;69.68;93898.88;523919;28;853;-42
2023/09/19 01:21:54;;;;;;;2.80;2.10;;;;;;;14.15;69.66;93897.59;521980;28;944;-42
2023/09/19 01:22:15;;;;;;;2.47;2.13;;;;;;;14.16;69.68;93890.72;523876;28;869;-41
2023/09/19 01:22:33;;;;;;;2.33;2.13;;;;;;;14.17;69.78;93894.97;524056;28;830;-41
2023/09/19 01:23:01;;;;;;;2.28;2.08;;;;;;;14.18;69.98;93895.72;526001;28;801;-41
2023/09/19 01:23:55;;;;;;;2.00;1.90;;;;;;;14.18;69.99;93890.19;524158;28;941;-41
2023/09/19 01:24:43;;;;;;;2.28;2.08;;;;;;;14.17;70.07;93889.44;525679;28;1264;-42
2023/09/19 01:25:35;;;;;;;3.00;2.72;;;;;;;14.19;70.41;93895.16;525821;28;876;-42
2023/09/19 01:26:05;;;;;;;2.15;1.83;;;;;;;14.19;70.55;93892.38;526180;27;890;-42
2023/09/19 01:26:33;;;;;;;2.83;2.17;;;;;;;14.19;70.66;93895.16;526401;28;1062;-42
2023/09/19 01:27:00;;;;;;;2.55;2.35;;;;;;;14.19;70.68;93892.38;528249;28;843;-41
2023/09/19 01:27:42;;;;;;;2.25;2.05;;;;;;;14.20;70.78;93893.88;526076;28;1437;-42
2023/09/19 01:28:30;;;;;;;2.42;2.22;;;;;;;14.20;70.99;93893.88;525738;28;1555;-42
2023/09/19 01:28:57;;;;;;;3.17;1.75;;;;;;;14.20;70.78;93896.66;525942;28;1252;-41
2023/09/19 01:29:39;;;;;;;2.28;2.08;;;;;;;14.21;70.69;93902.91;523915;28;860;-42
2023/09/19 01:30:08;;;;;;;2.28;1.92;;;;;;;14.22;70.38;93898.84;525483;28;881;-41
2023/09/19 01:30:27;;;;;;;2.95;2.28;;;;;;;14.20;70.36;93898.69;523913;28;844;-42
2023/09/19 01:30:44;;;;;;;2.75;2.10;;;;;;;14.20;70.21;93893.88;521775;28;964;-42